EPSY

Szczytno-Szymany International Airport

Poland
METAR EPSY 221800Z 32003KT 280V360 CAVOK 11/M00 Q1015
Observed Flight Rules
Apr-22 @ 18:00 UTC (14 minutes ago) Visual Flight Rules
Wind Visibility Clouds
320° at 3 knots 10,000+ meters
  • Clear skies
Temperatures Readings
Current 11°C / 52°F
Dewpoint 0°C / 32°F
Humidity 47%
Altimeter 29.97" Hg
Pressure 1015 hPa
Elevation 141
METAR EPSY 221800Z 32003KT 280V360 CAVOK 11/M00 Q1015
Observed Flight Rules
Apr-22 @ 18:00 UTC
(14 minutes ago)
VFR
Wind Visibility
320° at 3 knots 10,000+ meters
Clouds
  • Clear skies
Temperature Dewpoint
11°C / 52°F 0°C / 32°F
Humidity Altimeter Pressure
47% 29.97" Hg 1015 hPa